CheckWX is a tool to help pilots better visualize weather data.  It is not intended as a substitute for an official pre-flight weather briefing.

14:51:49 UTC

GLRB METAR
Roberts International Airport
Monrovia, Liberia
Current

22 mins ago

GLRB 291430Z 25009KT 9999 TS FEW008 BKN016 FEW024CB 27/25 Q1009 TEMPO TS RMK CB/S-W
Observed
Mar-29 @ 14:30 UTC
Wind
  • 250° at 9 KTS
Visibility
10,000+ meters
Flight Rules
MVFR
Conditions
Thunderstorm
Cloud Levels
  • Few at 800' AGL
  • Broken at 1,600' AGL
  • Few at 2,400' AGL
Temperature
27°C / 81°F
Dewpoint
25°C / 77°F
Humidity
89%
Altimeter
29.79" Hg
Pressure
1008.92 hPa
Previous

52 mins ago

GLRB 291400Z 20010KT 9999 TS BKN018 FEW025CB 29/26 Q1010 TEMPO TS RMK CB-S-W DIST RA-W
Observed
Mar-29 @ 14:00 UTC
Wind
  • 200° at 10 KTS
Visibility
10,000+ meters
Flight Rules
MVFR
Conditions
Thunderstorm
Cloud Levels
  • Broken at 1,800' AGL
  • Few at 2,500' AGL
Temperature
29°C / 84°F
Dewpoint
26°C / 79°F
Humidity
84%
Altimeter
29.82" Hg
Pressure
1009.92 hPa
Previous

1 hour ago

GLRB 291330Z 23005KT 9999 BKN020 FEW027CB 32/26 Q1011 NOSIG RMK CB-S
Observed
Mar-29 @ 13:30 UTC
Wind
  • 230° at 5 KTS
Visibility
10,000+ meters
Flight Rules
MVFR
Cloud Levels
  • Broken at 2,000' AGL
  • Few at 2,700' AGL
Temperature
32°C / 90°F
Dewpoint
26°C / 79°F
Humidity
71%
Altimeter
29.85" Hg
Pressure
1010.92 hPa